sensor_id;sensor_type;location;lat;lon;timestamp;P1;durP1;ratioP1;P2;durP2;ratioP2
37789;SDS011;23628;51.434;6.988;2022-08-25T13:34:40;2.88;;;2.50;;
37789;SDS011;23628;51.434;6.988;2022-08-25T13:46:48;5.07;;;2.83;;
37789;SDS011;23628;51.434;6.988;2022-08-25T13:49:40;3.35;;;2.92;;
37789;SDS011;23628;51.434;6.988;2022-08-25T13:52:22;2.58;;;2.38;;
37789;SDS011;23628;51.434;6.988;2022-08-25T14:00:11;5.22;;;2.78;;
37789;SDS011;23628;51.434;6.988;2022-08-25T14:02:52;3.20;;;2.90;;
37789;SDS011;23628;51.434;6.988;2022-08-25T14:05:35;3.05;;;2.80;;
37789;SDS011;23628;51.434;6.988;2022-08-25T14:11:11;2.78;;;2.38;;
37789;SDS011;23628;51.434;6.988;2022-08-25T14:16:23;3.38;;;3.08;;
37789;SDS011;23628;51.434;6.988;2022-08-25T14:18:52;2.97;;;2.78;;
37789;SDS011;23628;51.434;6.988;2022-08-25T14:21:25;3.03;;;2.72;;
37789;SDS011;23628;51.434;6.988;2022-08-25T14:26:48;2.95;;;2.72;;
37789;SDS011;23628;51.434;6.988;2022-08-25T14:29:23;2.80;;;2.60;;
37789;SDS011;23628;51.434;6.988;2022-08-25T14:31:50;2.97;;;2.75;;
37789;SDS011;23628;51.434;6.988;2022-08-25T14:36:54;2.90;;;2.70;;
37789;SDS011;23628;51.434;6.988;2022-08-25T14:39:34;3.13;;;2.90;;
37789;SDS011;23628;51.434;6.988;2022-08-25T14:42:10;4.15;;;2.70;;
37789;SDS011;23628;51.434;6.988;2022-08-25T14:47:19;2.78;;;2.58;;
37789;SDS011;23628;51.434;6.988;2022-08-25T14:52:26;3.35;;;2.50;;
37789;SDS011;23628;51.434;6.988;2022-08-25T14:55:03;3.20;;;2.90;;
37789;SDS011;23628;51.434;6.988;2022-08-25T14:57:31;3.70;;;2.65;;
37789;SDS011;23628;51.434;6.988;2022-08-25T14:59:59;3.30;;;3.00;;
37789;SDS011;23628;51.434;6.988;2022-08-25T15:07:45;3.30;;;2.40;;
37789;SDS011;23628;51.434;6.988;2022-08-25T15:16:07;3.38;;;3.15;;
37789;SDS011;23628;51.434;6.988;2022-08-25T15:21:28;2.72;;;2.38;;
37789;SDS011;23628;51.434;6.988;2022-08-25T15:24:07;2.90;;;2.70;;
37789;SDS011;23628;51.434;6.988;2022-08-25T15:31:44;3.28;;;2.83;;
37789;SDS011;23628;51.434;6.988;2022-08-25T15:37:10;2.80;;;2.60;;
37789;SDS011;23628;51.434;6.988;2022-08-25T15:39:43;2.50;;;2.30;;
37789;SDS011;23628;51.434;6.988;2022-08-25T15:42:19;3.63;;;2.90;;
37789;SDS011;23628;51.434;6.988;2022-08-25T15:44:51;5.13;;;3.08;;
37789;SDS011;23628;51.434;6.988;2022-08-25T15:47:19;3.22;;;2.72;;
37789;SDS011;23628;51.434;6.988;2022-08-25T15:50:00;3.05;;;2.85;;
37789;SDS011;23628;51.434;6.988;2022-08-25T15:52:34;2.92;;;2.63;;
37789;SDS011;23628;51.434;6.988;2022-08-25T15:55:15;4.53;;;2.87;;
37789;SDS011;23628;51.434;6.988;2022-08-25T15:57:52;2.60;;;2.40;;
37789;SDS011;23628;51.434;6.988;2022-08-25T16:00:19;9.98;;;3.10;;
37789;SDS011;23628;51.434;6.988;2022-08-25T16:02:49;2.75;;;2.50;;
37789;SDS011;23628;51.434;6.988;2022-08-25T16:05:19;2.65;;;2.45;;
37789;SDS011;23628;51.434;6.988;2022-08-25T16:07:59;3.13;;;2.60;;
37789;SDS011;23628;51.434;6.988;2022-08-25T16:13:14;3.20;;;2.80;;
37789;SDS011;23628;51.434;6.988;2022-08-25T16:18:29;3.60;;;3.30;;
37789;SDS011;23628;51.434;6.988;2022-08-25T16:20:58;6.30;;;3.22;;
37789;SDS011;23628;51.434;6.988;2022-08-25T16:24:04;4.50;;;3.08;;
37789;SDS011;23628;51.434;6.988;2022-08-25T16:26:39;3.25;;;2.95;;
37789;SDS011;23628;51.434;6.988;2022-08-25T16:29:21;3.60;;;3.03;;
37789;SDS011;23628;51.434;6.988;2022-08-25T16:34:27;5.82;;;3.15;;
37789;SDS011;23628;51.434;6.988;2022-08-25T16:36:59;3.38;;;2.97;;
37789;SDS011;23628;51.434;6.988;2022-08-25T16:39:26;7.05;;;3.47;;
37789;SDS011;23628;51.434;6.988;2022-08-25T16:44:30;4.05;;;3.05;;
37789;SDS011;23628;51.434;6.988;2022-08-25T16:47:07;3.67;;;3.38;;
37789;SDS011;23628;51.434;6.988;2022-08-25T16:49:41;5.15;;;3.45;;
37789;SDS011;23628;51.434;6.988;2022-08-25T16:52:19;6.15;;;3.53;;
37789;SDS011;23628;51.434;6.988;2022-08-25T16:57:40;3.65;;;3.30;;
37789;SDS011;23628;51.434;6.988;2022-08-25T17:00:38;3.15;;;2.83;;
37789;SDS011;23628;51.434;6.988;2022-08-25T17:03:15;3.37;;;3.10;;
37789;SDS011;23628;51.434;6.988;2022-08-25T17:05:49;3.15;;;2.90;;
37789;SDS011;23628;51.434;6.988;2022-08-25T17:08:19;5.68;;;3.45;;
37789;SDS011;23628;51.434;6.988;2022-08-25T17:11:15;9.50;;;3.40;;
37789;SDS011;23628;51.434;6.988;2022-08-25T17:13:47;4.53;;;2.95;;
37789;SDS011;23628;51.434;6.988;2022-08-25T17:18:45;5.10;;;3.40;;
37789;SDS011;23628;51.434;6.988;2022-08-25T17:21:17;5.88;;;3.75;;
37789;SDS011;23628;51.434;6.988;2022-08-25T17:23:50;4.78;;;3.17;;
37789;SDS011;23628;51.434;6.988;2022-08-25T17:26:18;6.53;;;3.72;;
37789;SDS011;23628;51.434;6.988;2022-08-25T17:28:54;4.85;;;3.15;;
37789;SDS011;23628;51.434;6.988;2022-08-25T17:31:24;5.95;;;3.53;;
37789;SDS011;23628;51.434;6.988;2022-08-25T17:33:53;6.03;;;3.50;;
37789;SDS011;23628;51.434;6.988;2022-08-25T17:36:23;3.67;;;3.38;;
37789;SDS011;23628;51.434;6.988;2022-08-25T17:38:53;5.32;;;2.88;;
37789;SDS011;23628;51.434;6.988;2022-08-25T17:41:24;8.45;;;3.58;;
37789;SDS011;23628;51.434;6.988;2022-08-25T17:43:51;3.33;;;3.03;;
37789;SDS011;23628;51.434;6.988;2022-08-25T17:46:18;4.07;;;3.30;;
37789;SDS011;23628;51.434;6.988;2022-08-25T17:48:46;3.60;;;3.30;;
37789;SDS011;23628;51.434;6.988;2022-08-25T17:56:26;5.18;;;3.65;;
37789;SDS011;23628;51.434;6.988;2022-08-25T17:58:56;4.20;;;3.80;;
37789;SDS011;23628;51.434;6.988;2022-08-25T18:01:33;6.55;;;3.72;;
37789;SDS011;23628;51.434;6.988;2022-08-25T18:04:22;6.68;;;3.45;;
37789;SDS011;23628;51.434;6.988;2022-08-25T18:09:32;3.72;;;3.40;;
37789;SDS011;23628;51.434;6.988;2022-08-25T18:12:01;9.25;;;3.20;;
37789;SDS011;23628;51.434;6.988;2022-08-25T18:14:37;4.10;;;3.55;;
37789;SDS011;23628;51.434;6.988;2022-08-25T18:17:07;5.35;;;3.33;;
37789;SDS011;23628;51.434;6.988;2022-08-25T18:22:11;4.40;;;3.22;;
37789;SDS011;23628;51.434;6.988;2022-08-25T18:24:38;3.50;;;3.20;;
37789;SDS011;23628;51.434;6.988;2022-08-25T18:27:08;3.65;;;3.35;;
37789;SDS011;23628;51.434;6.988;2022-08-25T18:29:37;4.93;;;3.60;;
37789;SDS011;23628;51.434;6.988;2022-08-25T18:32:06;6.20;;;3.53;;
37789;SDS011;23628;51.434;6.988;2022-08-25T18:34:37;4.50;;;3.30;;
37789;SDS011;23628;51.434;6.988;2022-08-25T18:39:41;3.33;;;3.03;;
37789;SDS011;23628;51.434;6.988;2022-08-25T18:42:27;3.83;;;3.22;;
37789;SDS011;23628;51.434;6.988;2022-08-25T18:44:54;8.55;;;3.40;;
37789;SDS011;23628;51.434;6.988;2022-08-25T18:47:40;3.67;;;3.38;;
37789;SDS011;23628;51.434;6.988;2022-08-25T18:50:12;4.13;;;3.50;;
37789;SDS011;23628;51.434;6.988;2022-08-25T18:52:42;4.35;;;3.65;;
37789;SDS011;23628;51.434;6.988;2022-08-25T18:55:08;3.92;;;3.50;;
37789;SDS011;23628;51.434;6.988;2022-08-25T19:00:16;5.25;;;3.65;;
37789;SDS011;23628;51.434;6.988;2022-08-25T19:02:46;4.18;;;3.58;;
37789;SDS011;23628;51.434;6.988;2022-08-25T19:05:14;6.15;;;3.78;;
37789;SDS011;23628;51.434;6.988;2022-08-25T19:07:42;5.28;;;3.70;;
37789;SDS011;23628;51.434;6.988;2022-08-25T19:10:17;4.72;;;3.70;;
37789;SDS011;23628;51.434;6.988;2022-08-25T19:12:51;4.65;;;4.07;;
37789;SDS011;23628;51.434;6.988;2022-08-25T19:15:25;6.28;;;3.65;;
37789;SDS011;23628;51.434;6.988;2022-08-25T19:17:53;7.35;;;3.58;;
